sensor_id;sensor_type;location;lat;lon;timestamp;temperature;humidity
41678;DHT22;27364;49.026;8.712;2023-01-28T00:01:49;2.10;99.90
41678;DHT22;27364;49.026;8.712;2023-01-28T00:04:14;2.10;99.90
41678;DHT22;27364;49.026;8.712;2023-01-28T00:06:40;2.10;99.90
41678;DHT22;27364;49.026;8.712;2023-01-28T00:09:05;2.10;99.90
41678;DHT22;27364;49.026;8.712;2023-01-28T00:11:31;2.10;99.90
41678;DHT22;27364;49.026;8.712;2023-01-28T00:13:58;2.10;99.90
41678;DHT22;27364;49.026;8.712;2023-01-28T00:16:24;2.10;99.90
41678;DHT22;27364;49.026;8.712;2023-01-28T00:18:52;2.10;99.90
41678;DHT22;27364;49.026;8.712;2023-01-28T00:21:17;2.10;99.90
41678;DHT22;27364;49.026;8.712;2023-01-28T00:23:49;2.10;99.90
41678;DHT22;27364;49.026;8.712;2023-01-28T00:26:16;2.10;99.90
41678;DHT22;27364;49.026;8.712;2023-01-28T00:28:42;2.10;99.90
41678;DHT22;27364;49.026;8.712;2023-01-28T00:31:16;2.20;99.90
41678;DHT22;27364;49.026;8.712;2023-01-28T00:33:43;2.10;99.90
41678;DHT22;27364;49.026;8.712;2023-01-28T00:36:09;2.20;99.90
41678;DHT22;27364;49.026;8.712;2023-01-28T00:38:35;2.20;99.90
41678;DHT22;27364;49.026;8.712;2023-01-28T00:41:12;2.20;99.90
41678;DHT22;27364;49.026;8.712;2023-01-28T00:43:39;2.10;99.90
41678;DHT22;27364;49.026;8.712;2023-01-28T00:46:06;2.20;99.90
41678;DHT22;27364;49.026;8.712;2023-01-28T00:48:32;2.10;99.90
41678;DHT22;27364;49.026;8.712;2023-01-28T00:50:58;2.20;99.90
41678;DHT22;27364;49.026;8.712;2023-01-28T00:53:25;2.20;99.90
41678;DHT22;27364;49.026;8.712;2023-01-28T00:55:50;2.20;99.90
41678;DHT22;27364;49.026;8.712;2023-01-28T00:58:17;2.20;99.90
41678;DHT22;27364;49.026;8.712;2023-01-28T01:00:43;2.10;99.90
41678;DHT22;27364;49.026;8.712;2023-01-28T01:03:09;2.10;99.90
41678;DHT22;27364;49.026;8.712;2023-01-28T01:05:34;2.10;99.90
41678;DHT22;27364;49.026;8.712;2023-01-28T01:08:00;2.10;99.90
41678;DHT22;27364;49.026;8.712;2023-01-28T01:10:26;2.10;99.90
41678;DHT22;27364;49.026;8.712;2023-01-28T01:12:51;2.10;99.90
41678;DHT22;27364;49.026;8.712;2023-01-28T01:15:18;2.10;99.90
41678;DHT22;27364;49.026;8.712;2023-01-28T01:17:46;2.10;99.90
41678;DHT22;27364;49.026;8.712;2023-01-28T01:20:20;2.10;99.90
41678;DHT22;27364;49.026;8.712;2023-01-28T01:22:46;2.10;99.90
41678;DHT22;27364;49.026;8.712;2023-01-28T01:25:14;2.00;99.90
41678;DHT22;27364;49.026;8.712;2023-01-28T01:27:41;2.00;99.90
41678;DHT22;27364;49.026;8.712;2023-01-28T01:30:07;2.00;99.90
41678;DHT22;27364;49.026;8.712;2023-01-28T01:32:34;2.00;99.90
41678;DHT22;27364;49.026;8.712;2023-01-28T01:35:01;2.00;99.90
41678;DHT22;27364;49.026;8.712;2023-01-28T01:37:27;2.00;99.90
41678;DHT22;27364;49.026;8.712;2023-01-28T01:39:52;2.00;99.90
41678;DHT22;27364;49.026;8.712;2023-01-28T01:42:18;2.00;99.90
41678;DHT22;27364;49.026;8.712;2023-01-28T01:45:00;2.00;99.90
41678;DHT22;27364;49.026;8.712;2023-01-28T01:47:35;2.00;99.90
41678;DHT22;27364;49.026;8.712;2023-01-28T01:50:08;2.00;99.90
41678;DHT22;27364;49.026;8.712;2023-01-28T01:52:37;2.00;99.90
41678;DHT22;27364;49.026;8.712;2023-01-28T01:55:08;2.00;99.90
41678;DHT22;27364;49.026;8.712;2023-01-28T01:57:36;2.00;99.90
41678;DHT22;27364;49.026;8.712;2023-01-28T02:00:04;2.00;99.90
41678;DHT22;27364;49.026;8.712;2023-01-28T02:02:43;2.00;99.90
41678;DHT22;27364;49.026;8.712;2023-01-28T02:05:11;2.00;99.90
41678;DHT22;27364;49.026;8.712;2023-01-28T02:07:37;2.00;99.90
41678;DHT22;27364;49.026;8.712;2023-01-28T02:10:04;1.90;99.90
41678;DHT22;27364;49.026;8.712;2023-01-28T02:12:37;1.90;99.90
41678;DHT22;27364;49.026;8.712;2023-01-28T02:15:09;2.00;99.90
41678;DHT22;27364;49.026;8.712;2023-01-28T02:17:36;2.00;99.90
41678;DHT22;27364;49.026;8.712;2023-01-28T02:25:39;1.90;99.90
41678;DHT22;27364;49.026;8.712;2023-01-28T02:28:22;1.90;99.90
41678;DHT22;27364;49.026;8.712;2023-01-28T02:30:55;1.90;99.90
41678;DHT22;27364;49.026;8.712;2023-01-28T02:33:45;1.90;99.90
41678;DHT22;27364;49.026;8.712;2023-01-28T02:36:29;2.00;99.90
41678;DHT22;27364;49.026;8.712;2023-01-28T02:39:02;2.00;99.90
41678;DHT22;27364;49.026;8.712;2023-01-28T02:41:33;1.90;99.90
41678;DHT22;27364;49.026;8.712;2023-01-28T02:44:01;1.90;99.90
41678;DHT22;27364;49.026;8.712;2023-01-28T02:49:25;1.90;99.90
41678;DHT22;27364;49.026;8.712;2023-01-28T02:54:57;1.90;99.90
41678;DHT22;27364;49.026;8.712;2023-01-28T02:57:46;1.90;99.90
41678;DHT22;27364;49.026;8.712;2023-01-28T03:00:18;1.90;99.90
41678;DHT22;27364;49.026;8.712;2023-01-28T03:03:27;1.90;99.90
41678;DHT22;27364;49.026;8.712;2023-01-28T03:06:04;1.90;99.90
41678;DHT22;27364;49.026;8.712;2023-01-28T03:08:39;1.90;99.90
41678;DHT22;27364;49.026;8.712;2023-01-28T03:11:26;1.90;99.90
41678;DHT22;27364;49.026;8.712;2023-01-28T03:14:11;1.90;99.90
41678;DHT22;27364;49.026;8.712;2023-01-28T03:16:59;2.00;99.90
41678;DHT22;27364;49.026;8.712;2023-01-28T03:19:45;1.90;99.90
41678;DHT22;27364;49.026;8.712;2023-01-28T03:22:33;1.90;99.90
41678;DHT22;27364;49.026;8.712;2023-01-28T03:25:19;1.90;99.90
41678;DHT22;27364;49.026;8.712;2023-01-28T03:28:06;1.90;99.90
41678;DHT22;27364;49.026;8.712;2023-01-28T03:33:43;1.90;99.90
41678;DHT22;27364;49.026;8.712;2023-01-28T03:36:28;1.90;99.90
41678;DHT22;27364;49.026;8.712;2023-01-28T03:39:15;1.90;99.90
41678;DHT22;27364;49.026;8.712;2023-01-28T03:41:41;1.90;99.90
41678;DHT22;27364;49.026;8.712;2023-01-28T03:44:07;1.90;99.90
41678;DHT22;27364;49.026;8.712;2023-01-28T03:46:51;1.90;99.90
41678;DHT22;27364;49.026;8.712;2023-01-28T03:49:16;1.90;99.90
41678;DHT22;27364;49.026;8.712;2023-01-28T03:51:42;1.90;99.90
41678;DHT22;27364;49.026;8.712;2023-01-28T03:54:09;2.00;99.90
41678;DHT22;27364;49.026;8.712;2023-01-28T03:56:34;1.90;99.90
41678;DHT22;27364;49.026;8.712;2023-01-28T03:59:02;1.90;99.90
41678;DHT22;27364;49.026;8.712;2023-01-28T04:01:28;2.00;99.90
41678;DHT22;27364;49.026;8.712;2023-01-28T04:03:53;1.90;99.90
41678;DHT22;27364;49.026;8.712;2023-01-28T04:06:19;1.90;99.90
41678;DHT22;27364;49.026;8.712;2023-01-28T04:08:45;1.90;99.90
41678;DHT22;27364;49.026;8.712;2023-01-28T04:11:17;1.90;99.90
41678;DHT22;27364;49.026;8.712;2023-01-28T04:13:45;1.90;99.90
41678;DHT22;27364;49.026;8.712;2023-01-28T04:16:15;1.90;99.90
41678;DHT22;27364;49.026;8.712;2023-01-28T04:18:42;1.90;99.90
41678;DHT22;27364;49.026;8.712;2023-01-28T04:21:07;1.90;99.90
41678;DHT22;27364;49.026;8.712;2023-01-28T04:23:33;1.90;99.90
41678;DHT22;27364;49.026;8.712;2023-01-28T04:25:59;1.90;99.90
41678;DHT22;27364;49.026;8.712;2023-01-28T04:28:24;1.90;99.90
41678;DHT22;27364;49.026;8.712;2023-01-28T04:30:51;1.90;99.90
41678;DHT22;27364;49.026;8.712;2023-01-28T04:33:17;1.90;99.90
41678;DHT22;27364;49.026;8.712;2023-01-28T04:35:43;1.90;99.90
41678;DHT22;27364;49.026;8.712;2023-01-28T04:38:09;1.90;99.90
41678;DHT22;27364;49.026;8.712;2023-01-28T04:40:34;1.90;99.90
41678;DHT22;27364;49.026;8.712;2023-01-28T04:43:00;1.90;99.90
41678;DHT22;27364;49.026;8.712;2023-01-28T04:45:25;1.90;99.90
41678;DHT22;27364;49.026;8.712;2023-01-28T04:47:51;1.90;99.90
41678;DHT22;27364;49.026;8.712;2023-01-28T04:50:16;1.90;99.90
41678;DHT22;27364;49.026;8.712;2023-01-28T04:52:42;1.90;99.90
41678;DHT22;27364;49.026;8.712;2023-01-28T04:55:09;1.90;99.90
41678;DHT22;27364;49.026;8.712;2023-01-28T04:57:35;1.90;99.90
41678;DHT22;27364;49.026;8.712;2023-01-28T05:00:00;1.90;99.90
41678;DHT22;27364;49.026;8.712;2023-01-28T05:02:26;1.90;99.90
41678;DHT22;27364;49.026;8.712;2023-01-28T05:04:51;1.90;99.90
41678;DHT22;27364;49.026;8.712;2023-01-28T05:07:17;1.90;99.90
41678;DHT22;27364;49.026;8.712;2023-01-28T05:09:42;1.90;99.90
41678;DHT22;27364;49.026;8.712;2023-01-28T05:12:08;1.90;99.90
41678;DHT22;27364;49.026;8.712;2023-01-28T05:14:33;1.90;99.90
41678;DHT22;27364;49.026;8.712;2023-01-28T05:16:59;1.90;99.90
41678;DHT22;27364;49.026;8.712;2023-01-28T05:19:25;1.80;99.90
41678;DHT22;27364;49.026;8.712;2023-01-28T05:21:51;1.80;99.90
41678;DHT22;27364;49.026;8.712;2023-01-28T05:24:17;1.80;99.90
41678;DHT22;27364;49.026;8.712;2023-01-28T05:26:42;1.80;99.90
41678;DHT22;27364;49.026;8.712;2023-01-28T05:29:08;1.80;99.90
41678;DHT22;27364;49.026;8.712;2023-01-28T05:31:33;1.80;99.90
41678;DHT22;27364;49.026;8.712;2023-01-28T05:33:59;1.80;99.90
41678;DHT22;27364;49.026;8.712;2023-01-28T05:36:25;1.80;99.90
41678;DHT22;27364;49.026;8.712;2023-01-28T05:38:50;1.80;99.90
41678;DHT22;27364;49.026;8.712;2023-01-28T05:41:16;1.80;99.90
41678;DHT22;27364;49.026;8.712;2023-01-28T05:43:41;1.80;99.90
41678;DHT22;27364;49.026;8.712;2023-01-28T05:46:07;1.80;99.90
41678;DHT22;27364;49.026;8.712;2023-01-28T05:48:33;1.80;99.90
41678;DHT22;27364;49.026;8.712;2023-01-28T05:50:58;1.80;99.90
41678;DHT22;27364;49.026;8.712;2023-01-28T05:53:24;1.80;99.90
41678;DHT22;27364;49.026;8.712;2023-01-28T05:55:50;1.80;99.90
41678;DHT22;27364;49.026;8.712;2023-01-28T05:58:18;1.80;99.90
41678;DHT22;27364;49.026;8.712;2023-01-28T06:00:44;1.80;99.90
41678;DHT22;27364;49.026;8.712;2023-01-28T06:03:10;1.90;99.90
41678;DHT22;27364;49.026;8.712;2023-01-28T06:05:35;1.80;99.90
41678;DHT22;27364;49.026;8.712;2023-01-28T06:08:01;1.80;99.90
41678;DHT22;27364;49.026;8.712;2023-01-28T06:10:27;1.80;99.90
41678;DHT22;27364;49.026;8.712;2023-01-28T06:12:52;1.80;99.90
41678;DHT22;27364;49.026;8.712;2023-01-28T06:15:18;1.80;99.90
41678;DHT22;27364;49.026;8.712;2023-01-28T06:17:43;1.70;99.90
41678;DHT22;27364;49.026;8.712;2023-01-28T06:20:09;1.70;99.90
41678;DHT22;27364;49.026;8.712;2023-01-28T06:22:35;1.70;99.90
41678;DHT22;27364;49.026;8.712;2023-01-28T06:25:01;1.60;99.90
41678;DHT22;27364;49.026;8.712;2023-01-28T06:27:26;1.60;99.90
41678;DHT22;27364;49.026;8.712;2023-01-28T06:29:52;1.60;99.90
41678;DHT22;27364;49.026;8.712;2023-01-28T06:32:18;1.60;99.90
41678;DHT22;27364;49.026;8.712;2023-01-28T06:34:43;1.60;99.90
41678;DHT22;27364;49.026;8.712;2023-01-28T06:37:12;1.60;99.90
41678;DHT22;27364;49.026;8.712;2023-01-28T06:39:38;1.60;99.90
41678;DHT22;27364;49.026;8.712;2023-01-28T06:42:03;1.60;99.90
41678;DHT22;27364;49.026;8.712;2023-01-28T06:44:29;1.50;99.90
41678;DHT22;27364;49.026;8.712;2023-01-28T06:46:54;1.50;99.90
41678;DHT22;27364;49.026;8.712;2023-01-28T06:49:20;1.50;99.90
41678;DHT22;27364;49.026;8.712;2023-01-28T06:51:46;1.50;99.90
41678;DHT22;27364;49.026;8.712;2023-01-28T06:54:12;1.60;99.90
41678;DHT22;27364;49.026;8.712;2023-01-28T06:56:37;1.50;99.90
41678;DHT22;27364;49.026;8.712;2023-01-28T06:59:03;1.50;99.90
41678;DHT22;27364;49.026;8.712;2023-01-28T07:01:28;1.50;99.90
41678;DHT22;27364;49.026;8.712;2023-01-28T07:03:54;1.50;99.90
41678;DHT22;27364;49.026;8.712;2023-01-28T07:06:20;1.50;99.90
41678;DHT22;27364;49.026;8.712;2023-01-28T07:08:46;1.60;99.90
41678;DHT22;27364;49.026;8.712;2023-01-28T07:11:11;1.60;99.90
41678;DHT22;27364;49.026;8.712;2023-01-28T07:13:37;1.50;99.90
41678;DHT22;27364;49.026;8.712;2023-01-28T07:16:02;1.60;99.90
41678;DHT22;27364;49.026;8.712;2023-01-28T07:18:29;1.50;99.90
41678;DHT22;27364;49.026;8.712;2023-01-28T07:20:54;1.50;99.90
41678;DHT22;27364;49.026;8.712;2023-01-28T07:23:20;1.50;99.90
41678;DHT22;27364;49.026;8.712;2023-01-28T07:25:46;1.50;99.90
41678;DHT22;27364;49.026;8.712;2023-01-28T07:28:11;1.50;99.90
41678;DHT22;27364;49.026;8.712;2023-01-28T07:30:37;1.50;99.90
41678;DHT22;27364;49.026;8.712;2023-01-28T07:33:03;1.50;99.90
41678;DHT22;27364;49.026;8.712;2023-01-28T07:35:28;1.50;99.90
41678;DHT22;27364;49.026;8.712;2023-01-28T07:37:56;1.50;99.90
41678;DHT22;27364;49.026;8.712;2023-01-28T07:40:23;1.60;99.90
41678;DHT22;27364;49.026;8.712;2023-01-28T07:42:48;1.60;99.90
41678;DHT22;27364;49.026;8.712;2023-01-28T07:45:14;1.60;99.90
41678;DHT22;27364;49.026;8.712;2023-01-28T07:47:40;1.60;99.90
41678;DHT22;27364;49.026;8.712;2023-01-28T07:50:07;1.60;99.90
41678;DHT22;27364;49.026;8.712;2023-01-28T07:52:33;1.60;99.90
41678;DHT22;27364;49.026;8.712;2023-01-28T07:55:06;1.60;99.90
41678;DHT22;27364;49.026;8.712;2023-01-28T07:57:31;1.60;99.90
41678;DHT22;27364;49.026;8.712;2023-01-28T07:59:57;1.60;99.90
41678;DHT22;27364;49.026;8.712;2023-01-28T08:02:22;1.70;99.90
41678;DHT22;27364;49.026;8.712;2023-01-28T08:04:48;1.70;99.90
41678;DHT22;27364;49.026;8.712;2023-01-28T08:07:13;1.70;99.90
41678;DHT22;27364;49.026;8.712;2023-01-28T08:09:39;1.70;99.90
41678;DHT22;27364;49.026;8.712;2023-01-28T08:12:04;1.70;99.90
41678;DHT22;27364;49.026;8.712;2023-01-28T08:14:30;1.70;99.90
41678;DHT22;27364;49.026;8.712;2023-01-28T08:16:56;1.80;99.90
41678;DHT22;27364;49.026;8.712;2023-01-28T08:19:22;1.80;99.90
41678;DHT22;27364;49.026;8.712;2023-01-28T08:21:47;1.80;99.90
41678;DHT22;27364;49.026;8.712;2023-01-28T08:24:13;1.80;99.90
41678;DHT22;27364;49.026;8.712;2023-01-28T08:26:38;1.90;99.90
41678;DHT22;27364;49.026;8.712;2023-01-28T08:29:04;1.80;99.90
41678;DHT22;27364;49.026;8.712;2023-01-28T08:31:30;1.80;99.90
41678;DHT22;27364;49.026;8.712;2023-01-28T08:33:55;1.80;99.90
41678;DHT22;27364;49.026;8.712;2023-01-28T08:36:21;1.90;99.90
41678;DHT22;27364;49.026;8.712;2023-01-28T08:38:52;1.90;99.90
41678;DHT22;27364;49.026;8.712;2023-01-28T08:41:22;1.90;99.90
41678;DHT22;27364;49.026;8.712;2023-01-28T08:43:48;1.90;99.90
41678;DHT22;27364;49.026;8.712;2023-01-28T08:46:14;1.90;99.90
41678;DHT22;27364;49.026;8.712;2023-01-28T08:48:43;1.90;99.90
41678;DHT22;27364;49.026;8.712;2023-01-28T08:51:09;1.90;99.90
41678;DHT22;27364;49.026;8.712;2023-01-28T08:53:38;1.90;99.90
41678;DHT22;27364;49.026;8.712;2023-01-28T08:56:09;1.90;99.90
41678;DHT22;27364;49.026;8.712;2023-01-28T08:58:36;1.90;99.90
41678;DHT22;27364;49.026;8.712;2023-01-28T09:01:12;1.90;99.90
41678;DHT22;27364;49.026;8.712;2023-01-28T09:03:40;2.00;99.90
41678;DHT22;27364;49.026;8.712;2023-01-28T09:06:05;2.00;99.90
41678;DHT22;27364;49.026;8.712;2023-01-28T09:08:31;2.00;99.90
41678;DHT22;27364;49.026;8.712;2023-01-28T09:10:58;2.00;99.90
41678;DHT22;27364;49.026;8.712;2023-01-28T09:13:23;2.00;99.90
41678;DHT22;27364;49.026;8.712;2023-01-28T09:15:49;2.00;99.90
41678;DHT22;27364;49.026;8.712;2023-01-28T09:18:16;2.00;99.90
41678;DHT22;27364;49.026;8.712;2023-01-28T09:20:41;2.00;99.90
41678;DHT22;27364;49.026;8.712;2023-01-28T09:23:13;2.00;99.90
41678;DHT22;27364;49.026;8.712;2023-01-28T09:25:39;2.10;99.90
41678;DHT22;27364;49.026;8.712;2023-01-28T09:28:06;2.10;99.90
41678;DHT22;27364;49.026;8.712;2023-01-28T09:30:31;2.10;99.90
41678;DHT22;27364;49.026;8.712;2023-01-28T09:32:57;2.10;99.90
41678;DHT22;27364;49.026;8.712;2023-01-28T09:35:24;2.10;99.90
41678;DHT22;27364;49.026;8.712;2023-01-28T09:37:49;2.10;99.90
41678;DHT22;27364;49.026;8.712;2023-01-28T09:40:19;2.10;99.90
41678;DHT22;27364;49.026;8.712;2023-01-28T09:45:22;2.10;99.90
41678;DHT22;27364;49.026;8.712;2023-01-28T09:47:55;2.20;99.90
41678;DHT22;27364;49.026;8.712;2023-01-28T09:50:29;2.20;99.90
41678;DHT22;27364;49.026;8.712;2023-01-28T09:53:12;2.30;99.90
41678;DHT22;27364;49.026;8.712;2023-01-28T09:55:54;2.30;99.90
41678;DHT22;27364;49.026;8.712;2023-01-28T09:58:20;2.30;99.90
41678;DHT22;27364;49.026;8.712;2023-01-28T10:01:18;2.30;99.90
41678;DHT22;27364;49.026;8.712;2023-01-28T10:04:01;2.30;99.90
41678;DHT22;27364;49.026;8.712;2023-01-28T10:06:56;2.30;99.90
41678;DHT22;27364;49.026;8.712;2023-01-28T10:17:52;2.40;99.90
41678;DHT22;27364;49.026;8.712;2023-01-28T10:20:22;2.40;99.90
41678;DHT22;27364;49.026;8.712;2023-01-28T10:25:30;2.40;99.90
41678;DHT22;27364;49.026;8.712;2023-01-28T10:28:00;2.40;99.90
41678;DHT22;27364;49.026;8.712;2023-01-28T10:30:31;2.40;99.90
41678;DHT22;27364;49.026;8.712;2023-01-28T10:33:27;2.40;99.90
41678;DHT22;27364;49.026;8.712;2023-01-28T10:35:54;2.40;99.90
41678;DHT22;27364;49.026;8.712;2023-01-28T10:38:23;2.40;99.90
41678;DHT22;27364;49.026;8.712;2023-01-28T10:40:50;2.40;99.90
41678;DHT22;27364;49.026;8.712;2023-01-28T10:43:21;2.40;99.90
41678;DHT22;27364;49.026;8.712;2023-01-28T10:45:56;2.30;99.90
41678;DHT22;27364;49.026;8.712;2023-01-28T10:48:32;2.30;99.90
41678;DHT22;27364;49.026;8.712;2023-01-28T10:51:01;2.30;99.90
41678;DHT22;27364;49.026;8.712;2023-01-28T10:53:46;2.30;99.90
41678;DHT22;27364;49.026;8.712;2023-01-28T10:56:24;2.30;99.90
41678;DHT22;27364;49.026;8.712;2023-01-28T10:59:18;2.30;99.90
41678;DHT22;27364;49.026;8.712;2023-01-28T11:01:59;2.40;99.90
41678;DHT22;27364;49.026;8.712;2023-01-28T11:04:33;2.40;99.90
41678;DHT22;27364;49.026;8.712;2023-01-28T11:07:04;2.30;99.90
41678;DHT22;27364;49.026;8.712;2023-01-28T11:09:43;2.30;99.90
41678;DHT22;27364;49.026;8.712;2023-01-28T11:12:12;2.30;99.90
41678;DHT22;27364;49.026;8.712;2023-01-28T11:14:52;2.30;99.90
41678;DHT22;27364;49.026;8.712;2023-01-28T11:17:20;2.30;99.90
41678;DHT22;27364;49.026;8.712;2023-01-28T11:19:49;2.40;99.90
41678;DHT22;27364;49.026;8.712;2023-01-28T11:22:37;2.40;99.90
41678;DHT22;27364;49.026;8.712;2023-01-28T11:27:54;2.40;99.90
41678;DHT22;27364;49.026;8.712;2023-01-28T11:30:24;2.40;99.90
41678;DHT22;27364;49.026;8.712;2023-01-28T11:35:39;2.40;99.90
41678;DHT22;27364;49.026;8.712;2023-01-28T11:38:26;2.50;99.90
41678;DHT22;27364;49.026;8.712;2023-01-28T11:40:54;2.50;99.90
41678;DHT22;27364;49.026;8.712;2023-01-28T11:43:26;2.50;99.90
41678;DHT22;27364;49.026;8.712;2023-01-28T11:52:18;2.50;99.90
41678;DHT22;27364;49.026;8.712;2023-01-28T11:57:41;2.50;99.90
41678;DHT22;27364;49.026;8.712;2023-01-28T12:00:27;2.50;99.90
41678;DHT22;27364;49.026;8.712;2023-01-28T12:05:45;2.60;99.90
41678;DHT22;27364;49.026;8.712;2023-01-28T12:08:28;2.60;99.90
41678;DHT22;27364;49.026;8.712;2023-01-28T12:11:26;2.60;99.90
41678;DHT22;27364;49.026;8.712;2023-01-28T12:14:28;2.60;99.90
41678;DHT22;27364;49.026;8.712;2023-01-28T12:19:41;2.70;99.90
41678;DHT22;27364;49.026;8.712;2023-01-28T12:25:18;2.70;99.90
41678;DHT22;27364;49.026;8.712;2023-01-28T12:28:07;2.70;99.90
41678;DHT22;27364;49.026;8.712;2023-01-28T12:30:55;2.70;99.90
41678;DHT22;27364;49.026;8.712;2023-01-28T12:33:44;2.70;99.90
41678;DHT22;27364;49.026;8.712;2023-01-28T12:44:38;2.80;99.90
41678;DHT22;27364;49.026;8.712;2023-01-28T12:47:14;2.80;99.90
41678;DHT22;27364;49.026;8.712;2023-01-28T12:49:55;2.80;99.90
41678;DHT22;27364;49.026;8.712;2023-01-28T12:52:31;2.80;99.90
41678;DHT22;27364;49.026;8.712;2023-01-28T12:55:36;2.80;99.90
41678;DHT22;27364;49.026;8.712;2023-01-28T12:58:05;2.80;99.90
41678;DHT22;27364;49.026;8.712;2023-01-28T13:00:45;2.90;99.90
41678;DHT22;27364;49.026;8.712;2023-01-28T13:03:26;2.90;99.90
41678;DHT22;27364;49.026;8.712;2023-01-28T13:05:58;3.00;99.90
41678;DHT22;27364;49.026;8.712;2023-01-28T13:08:27;3.00;99.90
41678;DHT22;27364;49.026;8.712;2023-01-28T13:10:54;3.00;99.90
41678;DHT22;27364;49.026;8.712;2023-01-28T13:13:37;3.00;99.90
41678;DHT22;27364;49.026;8.712;2023-01-28T13:16:04;3.10;99.90
41678;DHT22;27364;49.026;8.712;2023-01-28T13:18:33;3.10;99.90
41678;DHT22;27364;49.026;8.712;2023-01-28T13:21:00;3.10;99.90
41678;DHT22;27364;49.026;8.712;2023-01-28T13:23:42;3.10;99.90
41678;DHT22;27364;49.026;8.712;2023-01-28T13:26:35;3.10;99.90
41678;DHT22;27364;49.026;8.712;2023-01-28T13:31:53;3.10;99.90
41678;DHT22;27364;49.026;8.712;2023-01-28T13:34:30;3.10;99.90
41678;DHT22;27364;49.026;8.712;2023-01-28T13:36:58;3.00;99.90
41678;DHT22;27364;49.026;8.712;2023-01-28T13:39:25;3.00;99.90
41678;DHT22;27364;49.026;8.712;2023-01-28T13:41:54;3.00;99.90
41678;DHT22;27364;49.026;8.712;2023-01-28T13:44:32;3.00;99.90
41678;DHT22;27364;49.026;8.712;2023-01-28T13:49:42;3.00;99.90
41678;DHT22;27364;49.026;8.712;2023-01-28T13:54:50;3.00;99.90
41678;DHT22;27364;49.026;8.712;2023-01-28T13:57:30;3.00;99.90
41678;DHT22;27364;49.026;8.712;2023-01-28T14:00:20;3.00;99.90
41678;DHT22;27364;49.026;8.712;2023-01-28T14:05:49;3.00;99.90
41678;DHT22;27364;49.026;8.712;2023-01-28T14:11:19;2.90;99.90
41678;DHT22;27364;49.026;8.712;2023-01-28T14:16:51;3.00;99.90
41678;DHT22;27364;49.026;8.712;2023-01-28T14:19:27;3.00;99.90
41678;DHT22;27364;49.026;8.712;2023-01-28T14:21:55;3.00;99.90
41678;DHT22;27364;49.026;8.712;2023-01-28T14:24:24;2.90;99.90
41678;DHT22;27364;49.026;8.712;2023-01-28T14:27:11;2.90;99.90
41678;DHT22;27364;49.026;8.712;2023-01-28T14:30:21;2.90;99.90
41678;DHT22;27364;49.026;8.712;2023-01-28T14:32:50;2.90;99.90
41678;DHT22;27364;49.026;8.712;2023-01-28T14:35:33;2.90;99.90
41678;DHT22;27364;49.026;8.712;2023-01-28T14:38:06;2.90;99.90
41678;DHT22;27364;49.026;8.712;2023-01-28T14:40:36;2.90;99.90
41678;DHT22;27364;49.026;8.712;2023-01-28T14:43:06;2.90;99.90
41678;DHT22;27364;49.026;8.712;2023-01-28T14:45:56;2.90;99.90
41678;DHT22;27364;49.026;8.712;2023-01-28T14:48:25;2.90;99.90
41678;DHT22;27364;49.026;8.712;2023-01-28T14:59:51;2.90;99.90
41678;DHT22;27364;49.026;8.712;2023-01-28T15:02:21;2.80;99.90
41678;DHT22;27364;49.026;8.712;2023-01-28T15:04:47;2.80;99.90
41678;DHT22;27364;49.026;8.712;2023-01-28T15:07:20;2.80;99.90
41678;DHT22;27364;49.026;8.712;2023-01-28T15:10:43;2.80;99.90
41678;DHT22;27364;49.026;8.712;2023-01-28T15:12:48;2.80;99.90
41678;DHT22;27364;49.026;8.712;2023-01-28T15:17:45;2.80;99.90
41678;DHT22;27364;49.026;8.712;2023-01-28T15:20:17;2.80;99.90
41678;DHT22;27364;49.026;8.712;2023-01-28T15:22:43;2.70;99.90
41678;DHT22;27364;49.026;8.712;2023-01-28T15:25:20;2.70;99.90
41678;DHT22;27364;49.026;8.712;2023-01-28T15:27:47;2.80;99.90
41678;DHT22;27364;49.026;8.712;2023-01-28T15:30:31;2.80;99.90
41678;DHT22;27364;49.026;8.712;2023-01-28T15:33:08;2.80;99.90
41678;DHT22;27364;49.026;8.712;2023-01-28T15:35:35;2.80;99.90
41678;DHT22;27364;49.026;8.712;2023-01-28T15:38:02;2.80;99.90
41678;DHT22;27364;49.026;8.712;2023-01-28T15:40:29;2.80;99.90
41678;DHT22;27364;49.026;8.712;2023-01-28T15:42:55;2.80;99.90
41678;DHT22;27364;49.026;8.712;2023-01-28T15:45:24;2.80;99.90
41678;DHT22;27364;49.026;8.712;2023-01-28T15:48:01;2.80;99.90
41678;DHT22;27364;49.026;8.712;2023-01-28T15:50:28;2.70;99.90
41678;DHT22;27364;49.026;8.712;2023-01-28T15:52:53;2.80;99.90
41678;DHT22;27364;49.026;8.712;2023-01-28T15:55:37;2.70;99.90
41678;DHT22;27364;49.026;8.712;2023-01-28T15:58:18;2.70;99.90
41678;DHT22;27364;49.026;8.712;2023-01-28T16:00:44;2.70;99.90
41678;DHT22;27364;49.026;8.712;2023-01-28T16:03:18;2.70;99.90
41678;DHT22;27364;49.026;8.712;2023-01-28T16:06:03;2.70;99.90
41678;DHT22;27364;49.026;8.712;2023-01-28T16:08:53;2.70;99.90
41678;DHT22;27364;49.026;8.712;2023-01-28T16:11:27;2.70;99.90
41678;DHT22;27364;49.026;8.712;2023-01-28T16:13:55;2.70;99.90
41678;DHT22;27364;49.026;8.712;2023-01-28T16:18:55;2.70;99.90
41678;DHT22;27364;49.026;8.712;2023-01-28T16:21:27;2.70;99.90
41678;DHT22;27364;49.026;8.712;2023-01-28T16:24:21;2.60;99.90
41678;DHT22;27364;49.026;8.712;2023-01-28T16:27:05;2.60;99.90
41678;DHT22;27364;49.026;8.712;2023-01-28T16:29:42;2.60;99.90
41678;DHT22;27364;49.026;8.712;2023-01-28T16:32:40;2.60;99.90
41678;DHT22;27364;49.026;8.712;2023-01-28T16:35:19;2.60;99.90
41678;DHT22;27364;49.026;8.712;2023-01-28T16:37:46;2.60;99.90
41678;DHT22;27364;49.026;8.712;2023-01-28T16:40:14;2.60;99.90
41678;DHT22;27364;49.026;8.712;2023-01-28T16:42:40;2.60;99.90
41678;DHT22;27364;49.026;8.712;2023-01-28T16:45:06;2.60;99.90
41678;DHT22;27364;49.026;8.712;2023-01-28T16:47:32;2.60;99.90
41678;DHT22;27364;49.026;8.712;2023-01-28T16:49:57;2.60;99.90
41678;DHT22;27364;49.026;8.712;2023-01-28T16:52:23;2.60;99.90
41678;DHT22;27364;49.026;8.712;2023-01-28T16:54:49;2.60;99.90
41678;DHT22;27364;49.026;8.712;2023-01-28T16:57:16;2.60;99.90
41678;DHT22;27364;49.026;8.712;2023-01-28T16:59:42;2.50;99.90
41678;DHT22;27364;49.026;8.712;2023-01-28T17:02:12;2.50;99.90
41678;DHT22;27364;49.026;8.712;2023-01-28T17:04:38;2.50;99.90
41678;DHT22;27364;49.026;8.712;2023-01-28T17:07:04;2.50;99.90
41678;DHT22;27364;49.026;8.712;2023-01-28T17:09:29;2.40;99.90
41678;DHT22;27364;49.026;8.712;2023-01-28T17:11:55;2.40;99.90
41678;DHT22;27364;49.026;8.712;2023-01-28T17:14:21;2.40;99.90
41678;DHT22;27364;49.026;8.712;2023-01-28T17:16:46;2.40;99.90
41678;DHT22;27364;49.026;8.712;2023-01-28T17:19:12;2.40;99.90
41678;DHT22;27364;49.026;8.712;2023-01-28T17:21:38;2.40;99.90
41678;DHT22;27364;49.026;8.712;2023-01-28T17:24:04;2.40;99.90
41678;DHT22;27364;49.026;8.712;2023-01-28T17:26:30;2.40;99.90
41678;DHT22;27364;49.026;8.712;2023-01-28T17:28:56;2.40;99.90
41678;DHT22;27364;49.026;8.712;2023-01-28T17:31:21;2.40;99.90
41678;DHT22;27364;49.026;8.712;2023-01-28T17:33:51;2.40;99.90
41678;DHT22;27364;49.026;8.712;2023-01-28T17:36:17;2.40;99.90
41678;DHT22;27364;49.026;8.712;2023-01-28T17:38:45;2.40;99.90